createdAt,value
2019-03-23T21:38:36.624Z,13.80
2019-03-23T21:39:00.091Z,15.20
2019-03-23T21:39:23.496Z,13.00
2019-03-23T21:39:46.880Z,13.20
2019-03-23T21:40:10.365Z,15.60
2019-03-23T21:40:35.079Z,12.80
2019-03-23T21:40:58.859Z,13.80
2019-03-23T21:41:22.285Z,13.20
2019-03-23T21:41:45.697Z,14.20
2019-03-23T21:42:09.123Z,10.60
2019-03-23T21:42:32.500Z,13.00
2019-03-23T21:42:55.900Z,12.00
2019-03-23T21:43:19.318Z,12.80
2019-03-23T21:43:42.820Z,11.00
2019-03-23T21:44:06.190Z,13.40
2019-03-23T21:44:31.198Z,11.25
2019-03-23T21:44:54.857Z,14.20
2019-03-23T21:45:18.274Z,12.40
2019-03-23T21:45:41.777Z,10.80
2019-03-23T21:46:05.186Z,15.60
2019-03-23T21:46:28.577Z,16.60
2019-03-23T21:46:51.987Z,14.20
2019-03-23T21:47:15.370Z,12.80
2019-03-23T21:47:38.756Z,15.60
2019-03-23T21:48:02.165Z,12.80
2019-03-23T21:48:25.566Z,12.25
2019-03-23T21:48:48.964Z,13.60
2019-03-23T21:49:12.411Z,11.00
2019-03-23T21:49:35.811Z,12.00
2019-03-23T21:49:59.235Z,14.00
2019-03-23T21:50:22.643Z,10.60
2019-03-23T21:50:47.656Z,12.00
2019-03-23T21:51:11.468Z,11.80
2019-03-23T21:51:34.881Z,9.50
2019-03-23T21:51:58.374Z,11.00
2019-03-23T21:52:21.911Z,16.40
2019-03-23T21:52:45.314Z,14.80
2019-03-23T21:53:08.766Z,13.60
2019-03-23T21:53:32.243Z,14.40
2019-03-23T21:53:55.640Z,14.60
2019-03-23T21:54:19.039Z,14.50
2019-03-23T21:54:42.460Z,21.50
2019-03-23T21:55:06.315Z,16.00
2019-03-23T21:55:29.729Z,15.00
2019-03-23T21:55:53.127Z,12.60
2019-03-23T21:56:16.538Z,14.00
2019-03-23T21:56:40.028Z,15.40
2019-03-23T21:57:03.421Z,17.40
2019-03-23T21:57:26.814Z,12.20
2019-03-23T21:57:50.216Z,14.00
2019-03-23T21:58:13.605Z,14.20
2019-03-23T21:58:37.007Z,14.20
2019-03-23T21:59:00.418Z,12.60
2019-03-23T21:59:25.475Z,14.60
2019-03-23T21:59:48.999Z,17.00
2019-03-23T22:00:12.969Z,14.00
2019-03-23T22:00:36.477Z,12.60
2019-03-23T22:00:59.894Z,16.20
2019-03-23T22:01:23.318Z,18.40
2019-03-23T22:01:46.709Z,14.40
2019-03-23T22:02:10.124Z,13.00
2019-03-23T22:02:33.504Z,13.00
2019-03-23T22:02:56.928Z,14.00
2019-03-23T22:03:20.326Z,14.00
2019-03-23T22:03:43.709Z,11.40
2019-03-23T22:04:07.127Z,15.50
2019-03-23T22:04:31.015Z,12.40
2019-03-23T22:04:54.438Z,13.20
2019-03-23T22:05:17.831Z,14.00
2019-03-23T22:05:41.237Z,11.00
2019-03-23T22:06:04.759Z,13.80
2019-03-23T22:06:28.158Z,9.40
2019-03-23T22:06:51.563Z,11.80
2019-03-23T22:07:14.951Z,11.60
2019-03-23T22:07:38.364Z,11.00
2019-03-23T22:08:01.768Z,13.00
2019-03-23T22:08:25.255Z,14.60
2019-03-23T22:08:48.685Z,17.40
2019-03-23T22:09:12.096Z,15.00
2019-03-23T22:09:35.485Z,13.25
2019-03-23T22:09:58.879Z,12.00
2019-03-23T22:10:22.262Z,10.80
2019-03-23T22:10:45.679Z,12.40
2019-03-23T22:11:09.078Z,9.50
2019-03-23T22:11:32.515Z,17.20
2019-03-23T22:11:55.873Z,9.80
2019-03-23T22:12:19.320Z,13.80
2019-03-23T22:12:42.697Z,13.80
2019-03-23T22:13:06.107Z,11.80
2019-03-23T22:13:29.516Z,13.80
2019-03-23T22:13:52.915Z,12.40
2019-03-23T22:14:16.349Z,10.50
2019-03-23T22:14:41.952Z,10.60
2019-03-23T22:15:07.549Z,11.00
2019-03-23T22:15:34.124Z,11.20
2019-03-23T22:15:57.556Z,11.00
2019-03-23T22:16:20.967Z,12.40
2019-03-23T22:16:44.378Z,13.00
2019-03-23T22:17:07.774Z,10.60
2019-03-23T22:17:31.211Z,10.40
2019-03-23T22:17:54.577Z,15.40
2019-03-23T22:18:17.994Z,10.60
2019-03-23T22:18:41.397Z,15.00
2019-03-23T22:19:04.842Z,10.00
2019-03-23T22:19:28.243Z,14.00
2019-03-23T22:19:51.665Z,12.00
2019-03-23T22:20:15.044Z,10.60
2019-03-23T22:20:38.447Z,11.40
2019-03-23T22:21:01.856Z,13.80
2019-03-23T22:21:25.418Z,9.80
2019-03-23T22:21:48.817Z,13.00
2019-03-23T22:22:12.206Z,10.00
2019-03-23T22:22:35.733Z,11.20
2019-03-23T22:22:59.162Z,11.00
2019-03-23T22:23:22.621Z,9.00
2019-03-23T22:23:45.987Z,9.00
2019-03-23T22:24:09.416Z,11.40
2019-03-23T22:24:32.793Z,10.40
2019-03-23T22:24:56.197Z,10.00
2019-03-23T22:25:19.657Z,12.00
2019-03-23T22:25:43.124Z,9.20
2019-03-23T22:26:06.564Z,11.00
2019-03-23T22:26:29.958Z,9.80
2019-03-23T22:26:53.368Z,12.00
2019-03-23T22:27:18.993Z,9.60
2019-03-23T22:27:41.901Z,14.80
2019-03-23T22:28:05.303Z,11.00
2019-03-23T22:28:28.735Z,11.00
2019-03-23T22:28:52.136Z,13.40
2019-03-23T22:29:15.575Z,12.60
2019-03-23T22:29:38.981Z,11.20
2019-03-23T22:30:02.445Z,11.00
2019-03-23T22:30:25.849Z,14.00
2019-03-23T22:30:49.237Z,10.80
2019-03-23T22:31:12.619Z,11.60
2019-03-23T22:31:36.018Z,11.00
2019-03-23T22:31:59.428Z,12.40
2019-03-23T22:32:22.799Z,12.40
2019-03-23T22:32:46.207Z,8.60
2019-03-23T22:33:09.610Z,8.80
2019-03-23T22:33:33.046Z,7.80
2019-03-23T22:33:56.479Z,11.00
2019-03-23T22:34:19.869Z,11.80
2019-03-23T22:34:43.257Z,9.60
2019-03-23T22:35:07.315Z,12.00
2019-03-23T22:35:30.729Z,10.20
2019-03-23T22:35:54.127Z,11.60
2019-03-23T22:36:17.563Z,11.00
2019-03-23T22:36:40.922Z,11.00
2019-03-23T22:37:04.311Z,12.00
2019-03-23T22:37:28.063Z,9.40
2019-03-23T22:37:51.483Z,9.40
2019-03-23T22:38:14.906Z,9.60
2019-03-23T22:38:38.313Z,13.40
2019-03-23T22:39:01.739Z,8.80
2019-03-23T22:39:25.110Z,9.20
2019-03-23T22:39:48.519Z,11.00
2019-03-23T22:40:11.924Z,10.00
2019-03-23T22:40:35.569Z,9.00
2019-03-23T22:40:59.019Z,7.20
2019-03-23T22:41:22.434Z,11.00
2019-03-23T22:41:45.835Z,9.00
2019-03-23T22:42:09.272Z,9.00
2019-03-23T22:42:32.637Z,8.80
2019-03-23T22:42:56.040Z,8.00
2019-03-23T22:43:19.426Z,11.40
2019-03-23T22:43:42.827Z,7.80
2019-03-23T22:44:06.219Z,6.80
2019-03-23T22:44:29.683Z,9.00
2019-03-23T22:44:53.095Z,8.25
2019-03-23T22:45:16.514Z,10.00
2019-03-23T22:45:39.952Z,8.40
2019-03-23T22:46:03.376Z,9.40
2019-03-23T22:46:26.764Z,8.20
2019-03-23T22:46:50.159Z,5.80
2019-03-23T22:47:13.553Z,7.40
2019-03-23T22:47:37.005Z,11.00
2019-03-23T22:48:00.405Z,7.20
2019-03-23T22:48:23.789Z,10.40
2019-03-23T22:48:47.171Z,9.00
2019-03-23T22:49:10.575Z,7.00
2019-03-23T22:49:34.001Z,10.00
2019-03-23T22:49:57.387Z,12.00
2019-03-23T22:50:20.811Z,9.40
2019-03-23T22:50:44.213Z,9.40
2019-03-23T22:51:07.629Z,9.00
2019-03-23T22:51:31.053Z,7.60
2019-03-23T22:51:54.480Z,7.60
2019-03-23T22:52:17.879Z,10.00
2019-03-23T22:52:41.268Z,11.60
2019-03-23T22:53:04.659Z,8.80
2019-03-23T22:53:28.049Z,9.00
2019-03-23T22:53:51.438Z,7.40
2019-03-23T22:54:14.794Z,8.75
2019-03-23T22:54:38.223Z,13.00
2019-03-23T22:55:01.651Z,8.40
2019-03-23T22:55:25.063Z,7.60
2019-03-23T22:55:48.479Z,8.00
2019-03-23T22:56:11.865Z,8.20
2019-03-23T22:56:35.251Z,8.00
2019-03-23T22:56:58.653Z,8.00
2019-03-23T22:57:22.025Z,7.00
2019-03-23T22:57:45.433Z,6.80
2019-03-23T22:58:08.891Z,6.80
2019-03-23T22:58:31.406Z,8.20
2019-03-23T22:58:54.864Z,8.25
2019-03-23T22:59:17.387Z,7.40
2019-03-23T22:59:40.836Z,7.00
2019-03-23T23:00:07.328Z,11.60
2019-03-23T23:00:44.005Z,9.40
2019-03-23T23:01:07.437Z,9.20
2019-03-23T23:01:30.886Z,12.60
2019-03-23T23:01:54.646Z,9.40
2019-03-23T23:02:18.067Z,9.00
2019-03-23T23:02:41.495Z,7.00
2019-03-23T23:03:05.057Z,7.60
2019-03-23T23:03:28.436Z,10.40
2019-03-23T23:03:51.833Z,7.60
2019-03-23T23:04:15.277Z,9.00
2019-03-23T23:04:38.677Z,8.60
2019-03-23T23:05:02.086Z,7.00
2019-03-23T23:05:25.453Z,9.00
2019-03-23T23:05:48.862Z,7.00
2019-03-23T23:06:12.260Z,7.60
2019-03-23T23:06:35.697Z,8.40
2019-03-23T23:06:59.114Z,5.40
2019-03-23T23:07:22.509Z,11.00
2019-03-23T23:07:46.211Z,11.00
2019-03-23T23:08:09.618Z,8.00
2019-03-23T23:08:33.032Z,10.00
2019-03-23T23:08:56.495Z,10.00
2019-03-23T23:09:19.896Z,9.80
2019-03-23T23:09:43.290Z,8.00
2019-03-23T23:10:07.081Z,8.40
2019-03-23T23:10:30.500Z,8.60
2019-03-23T23:10:53.893Z,6.00
2019-03-23T23:11:17.296Z,9.40
2019-03-23T23:11:40.696Z,7.80
2019-03-23T23:12:04.252Z,6.00
2019-03-23T23:12:27.652Z,8.00
2019-03-23T23:12:51.045Z,4.60
2019-03-23T23:13:14.418Z,5.60
2019-03-23T23:13:37.840Z,8.00
2019-03-23T23:14:01.252Z,6.60
2019-03-23T23:14:24.693Z,8.00
2019-03-23T23:14:48.137Z,6.60
2019-03-23T23:15:11.996Z,6.60
2019-03-23T23:15:35.380Z,9.50
2019-03-23T23:15:58.789Z,5.40
2019-03-23T23:16:22.201Z,6.00
2019-03-23T23:16:45.611Z,10.00
2019-03-23T23:17:08.997Z,8.00
2019-03-23T23:17:32.390Z,8.40
2019-03-23T23:17:55.787Z,5.40
2019-03-23T23:18:19.175Z,5.60
2019-03-23T23:18:42.586Z,10.40
2019-03-23T23:19:05.967Z,8.40
2019-03-23T23:19:29.361Z,7.00
2019-03-23T23:19:52.749Z,9.00
2019-03-23T23:20:16.119Z,5.00
2019-03-23T23:20:39.508Z,6.00
2019-03-23T23:21:02.970Z,4.25
2019-03-23T23:21:26.414Z,4.20
2019-03-23T23:21:49.832Z,8.00
2019-03-23T23:22:13.261Z,8.00
2019-03-23T23:22:36.632Z,10.00
2019-03-23T23:23:00.018Z,6.40
2019-03-23T23:23:23.398Z,6.00
2019-03-23T23:23:46.781Z,8.00
2019-03-23T23:24:10.165Z,8.40
2019-03-23T23:24:33.536Z,4.60
2019-03-23T23:24:56.946Z,6.80
2019-03-23T23:25:20.345Z,6.00
2019-03-23T23:25:43.752Z,7.20
2019-03-23T23:26:07.173Z,7.40
2019-03-23T23:26:30.578Z,9.00
2019-03-23T23:26:53.983Z,6.60
2019-03-23T23:27:17.450Z,8.00
2019-03-23T23:27:40.838Z,6.00
2019-03-23T23:28:04.236Z,7.40
2019-03-23T23:28:27.617Z,8.00
2019-03-23T23:28:51.002Z,9.00
2019-03-23T23:29:14.412Z,7.00
2019-03-23T23:29:37.806Z,8.00
2019-03-23T23:30:01.189Z,6.00
2019-03-23T23:30:24.590Z,6.00
2019-03-23T23:30:47.987Z,4.50
2019-03-23T23:31:11.400Z,5.00
2019-03-23T23:31:34.818Z,6.40
2019-03-23T23:31:58.250Z,9.00
2019-03-23T23:32:21.642Z,7.60
2019-03-23T23:32:45.048Z,12.00
2019-03-23T23:33:08.435Z,6.80
2019-03-23T23:33:31.812Z,7.00
2019-03-23T23:33:55.215Z,6.00
2019-03-23T23:34:18.600Z,8.40
2019-03-23T23:34:41.994Z,7.00
2019-03-23T23:35:08.312Z,5.80
2019-03-23T23:35:31.734Z,5.80
2019-03-23T23:35:55.156Z,5.00
2019-03-23T23:36:18.538Z,4.20
2019-03-23T23:36:42.214Z,4.00
2019-03-23T23:37:05.678Z,6.20
2019-03-23T23:37:29.061Z,6.80
2019-03-23T23:37:52.486Z,7.20
2019-03-23T23:38:15.882Z,4.60
2019-03-23T23:38:39.282Z,4.40
2019-03-23T23:39:02.752Z,6.00
2019-03-23T23:39:26.134Z,5.40
2019-03-23T23:39:49.522Z,5.60
2019-03-23T23:40:12.903Z,3.60
2019-03-23T23:40:36.279Z,7.40
2019-03-23T23:40:59.668Z,6.60
2019-03-23T23:41:23.058Z,5.00
2019-03-23T23:41:46.450Z,6.00
2019-03-23T23:42:09.836Z,8.00
2019-03-23T23:42:33.224Z,5.00
2019-03-23T23:42:56.660Z,3.60
2019-03-23T23:43:20.063Z,4.00
2019-03-23T23:43:43.476Z,5.00
2019-03-23T23:44:06.892Z,3.60
2019-03-23T23:44:30.312Z,6.00
2019-03-23T23:44:53.688Z,6.60
2019-03-23T23:45:17.248Z,8.00
2019-03-23T23:45:40.638Z,6.40
2019-03-23T23:46:04.040Z,6.60
2019-03-23T23:46:27.475Z,3.75
2019-03-23T23:46:50.896Z,7.40
2019-03-23T23:47:14.314Z,6.60
2019-03-23T23:47:37.740Z,4.20
2019-03-23T23:48:01.164Z,6.00
2019-03-23T23:48:24.514Z,4.80
2019-03-23T23:48:51.503Z,8.00
2019-03-23T23:49:13.028Z,4.60
2019-03-23T23:49:36.406Z,6.40
2019-03-23T23:49:59.812Z,5.60
2019-03-23T23:50:23.203Z,4.40
2019-03-23T23:50:46.602Z,7.00
2019-03-23T23:51:09.991Z,4.00
2019-03-23T23:51:33.418Z,6.50
2019-03-23T23:51:56.839Z,5.20
2019-03-23T23:52:20.266Z,5.40
2019-03-23T23:52:43.663Z,3.60
2019-03-23T23:53:07.105Z,4.60
2019-03-23T23:53:30.482Z,6.00
2019-03-23T23:53:53.934Z,7.80
2019-03-23T23:54:17.326Z,5.40
2019-03-23T23:54:40.705Z,4.20
2019-03-23T23:55:04.848Z,6.00
2019-03-23T23:55:28.239Z,6.00
2019-03-23T23:55:51.620Z,4.60
2019-03-23T23:56:15.006Z,4.80
2019-03-23T23:56:38.416Z,4.00
2019-03-23T23:57:01.875Z,5.00
2019-03-23T23:57:25.698Z,6.00
2019-03-23T23:57:49.097Z,5.00
2019-03-23T23:58:12.505Z,5.60
2019-03-23T23:58:35.887Z,6.60
2019-03-23T23:58:59.349Z,5.00
2019-03-23T23:59:22.729Z,5.00
2019-03-23T23:59:46.141Z,3.00
